MKJPSKCG

Guest
Details From MKJP - Norman Manley Intl
To SKCG - RAFAEL NUNEZ
Flight Number -
Tags generated
Created
Modified
Stats Distance 467 nm / 865 km
Max Altitude 33,500 ft / 10,211 m
Waypoints 7
Social Downloads 0
Likes 0
Share VATSIM

Download

Looking for another format? Having issues loading an existing format? Contact us
Advertisement - Login to hide

Notes

Basic altitude profile: - Ascent Rate: 2500ft/min - Ascent Speed: 250kts - Cruise Altitude: 35000ft - Cruise Speed: 420kts - Descent Rate: 1500ft/min - Descent Speed: 250kts Options: - Use NATs: yes - Use PACOTS: yes - Use low airways: yes - Use high airways: yes

Route

MKJP MLY A301 OTAMO UA301 BOLAR A301 MORGI SKCG

ID Type Via Altitude Latitude Longitude Leg Dist Tot Dist Heading (true) Name
O MKJP APT - 0 ft / 0 m 17.93567˚ -76.78756˚ - 0 nm - Norman Manley Intl
MLY VOR - 200 ft / 61 m 17.93025˚ -76.77764˚ 0 nm 0 nm 120° / 120° MANLEY VOR-DME
ALPEN FIX A301 (AWY-LO) 13,400 ft / 4,084 m 17.29111˚ -76.59917˚ 39 nm 40 nm 165° / 165° -
OTAMO FIX A301 (AWY-LO) 23,500 ft / 7,163 m 15.00000˚ -75.98333˚ 142 nm 182 nm 165° / 166° -
BOLAR FIX UA301 (AWY-HI) 33,500 ft / 10,211 m 12.93528˚ -75.41944˚ 128 nm 310 nm 165° / 165° -
MORGI FIX A301 (AWY-LO) 15,500 ft / 4,724 m 11.65611˚ -75.08417˚ 79 nm 390 nm 166° / 166° -
O SKCG APT - 0 ft / 0 m 10.44238˚ -75.51296˚ 77 nm 467 nm 199° / 199° RAFAEL NUNEZ

Altitude Profile

Advertisement - Login to hide

Weather


0- 5 10 15 20 25 30 35+ Temperature / ° C

Clouds and Precipitation
Forecast for 2017-12-19 00:00 UTC. Updated an hour ago

Ground ~20,000 ft ~40,000 ft Winds

MKJP

Details ICAO MKJP (KIN)
Name Norman Manley Intl
Region Jamaica
Timezone Unknown (UTC+0.0)
Stats Elevation 10 ft / 3 m (AMSL)
Location 17.935665° -76.787560°
Runways 1
Magnetic Variation 7.542° W

METAR

MKJP 182000Z 19006KT 9999 FEW024 31/22 Q1014

Decode

TAF

TAF MKJP 181715Z 1818/1918 14015KT 9999 FEW024 BECMG 1900/1902 35003KT BECMG 1915/1917 14012KT

Decode

Departure Runways

ID Width Length Bearing (true) Bearing (mag) Surface Threshold Offset Overrun Length
12 150 ft / 46 m 8,912 ft / 2,717 m 112.09° 119.63° Asphalt 0 ft / 0 m 0 ft / 0 m
30 150 ft / 46 m 8,912 ft / 2,717 m 292.10° 299.64° Asphalt 0 ft / 0 m 0 ft / 0 m

SKCG

Details ICAO SKCG (CTG)
Name RAFAEL NUNEZ
Region Colombia
Timezone America/Bogota (UTC-5.0)
Stats Elevation 4 ft / 1 m (AMSL)
Location 10.442379° -75.512961°
Runways 1
Magnetic Variation 7.206° W

METAR

SKCG 182000Z 02011KT 9999 FEW013 32/24 A2975

Decode

TAF

Not found

Destination Runways

ID Width Length Bearing (true) Bearing (mag) Surface Threshold Offset Overrun Length
01 148 ft / 45 m 8,584 ft / 2,616 m 2.31° 9.52° Asphalt 0 ft / 0 m 180 ft / 55 m
19 148 ft / 45 m 8,584 ft / 2,616 m 182.31° 189.52° Asphalt 190 ft / 58 m 0 ft / 0 m

Popular Alternatives